Sabine, Texas
Current Conditions -  °F | °C
As of 3:53 AM on Thursday 27 Nov 2014 (Local Time) from KBPT Reporting Station
Clear Clear  
Wind Chill: 41°   Ceiling: Unl
Heat Index: 41°   Visibility: 10mi
Dew Point: 40°   Wind: 0mph
Humidity: 96%   Direction: NA
Pressure: 30.38"   Gusts: NA
Location:  29.7569°N, 94.1898°W
Report Text: KBPT 270953Z 00000KT 10SM CLR 05/04 A3038 RMK AO2 SLP287 T00500044
Loading
Personal Weather Stations






























Interactive Weather Map New forecast layout! Learn more

10-Day Weather Forecast

Advertisements
Track Severe Weather on mobile